Time;durP1;ratioP1;P1;durP2;ratioP2;P2;SDS_P1;SDS_P2;PMS_P1;PMS_P2;Temp;Humidity;BMP_temperature;BMP_pressure;BME280_temperature;BME280_humidity;BME280_pressure;Samples;Min_cycle;Max_cycle;Signal;HPM_P1;HPM_P2
2021/01/18 00:00:33;;;;;;;9.17;6.27;;;;;;;-1.10;89.69;96161.56;5071752;28;20187;-75
2021/01/18 00:02:59;;;;;;;8.23;6.07;;;;;;;-1.05;89.15;96157.13;5071922;28;20250;-74
2021/01/18 00:05:24;;;;;;;9.17;6.47;;;;;;;-1.09;89.35;96158.13;5054014;28;20647;-74
2021/01/18 00:07:51;;;;;;;9.20;6.80;;;;;;;-1.10;89.69;96158.19;5053100;28;20222;-75
2021/01/18 00:10:20;;;;;;;9.50;6.43;;;;;;;-1.14;89.61;96160.06;5036789;28;20199;-74
2021/01/18 00:12:47;;;;;;;9.03;6.90;;;;;;;-1.09;89.22;96163.22;5053927;28;20192;-75
2021/01/18 00:15:13;;;;;;;10.07;6.53;;;;;;;-1.10;89.67;96151.38;5054065;28;20208;-74
2021/01/18 00:17:38;;;;;;;8.30;6.73;;;;;;;-1.05;89.71;96158.84;5053711;28;20212;-74
2021/01/18 00:20:04;;;;;;;9.10;6.10;;;;;;;-1.12;89.90;96163.34;5053432;28;20188;-75
2021/01/18 00:22:30;;;;;;;10.13;5.67;;;;;;;-1.10;89.60;96158.19;5071304;28;20176;-74
2021/01/18 00:24:55;;;;;;;8.53;5.60;;;;;;;-1.11;89.37;96154.81;5071701;28;20230;-74
2021/01/18 00:27:20;;;;;;;9.53;5.97;;;;;;;-1.11;89.67;96157.38;5071542;28;20515;-75
2021/01/18 00:29:47;;;;;;;7.53;5.43;;;;;;;-1.12;89.46;96155.72;5071299;28;20210;-75
2021/01/18 00:32:12;;;;;;;7.67;5.57;;;;;;;-1.08;89.57;96152.13;5037001;28;20211;-75
2021/01/18 00:34:37;;;;;;;11.27;6.07;;;;;;;-1.08;89.32;96156.41;5071635;28;20219;-74
2021/01/18 00:37:03;;;;;;;8.37;6.50;;;;;;;-1.06;89.52;96154.63;5053689;28;20178;-75
2021/01/18 00:39:28;;;;;;;13.53;7.40;;;;;;;-1.00;89.68;96154.38;5036692;28;20265;-74
2021/01/18 00:41:54;;;;;;;11.27;7.03;;;;;;;-1.02;88.96;96149.34;5053625;28;20182;-74
2021/01/18 00:44:19;;;;;;;10.20;6.90;;;;;;;-1.03;89.02;96152.78;5071427;28;20176;-75
2021/01/18 00:46:45;;;;;;;8.53;6.87;;;;;;;-1.02;89.58;96154.44;5071323;28;20191;-76
2021/01/18 00:49:10;;;;;;;8.33;6.30;;;;;;;-1.07;89.09;96155.50;5036608;28;20203;-74
2021/01/18 00:51:39;;;;;;;8.50;6.33;;;;;;;-0.98;89.15;96155.13;5053523;28;20190;-74
2021/01/18 00:54:05;;;;;;;8.67;6.67;;;;;;;-1.03;89.32;96164.72;5053334;28;20198;-74
2021/01/18 00:56:30;;;;;;;8.53;6.63;;;;;;;-1.07;89.35;96155.50;5053515;28;20235;-74
2021/01/18 00:58:55;;;;;;;8.47;6.20;;;;;;;-1.07;89.48;96155.50;5053034;28;20670;-75
2021/01/18 01:01:21;;;;;;;10.33;6.30;;;;;;;-1.13;89.49;96156.59;5053310;28;20697;-75
2021/01/18 01:03:46;;;;;;;9.73;6.30;;;;;;;-1.08;89.18;96154.69;5036734;28;20576;-75
2021/01/18 01:06:11;;;;;;;9.93;6.17;;;;;;;-1.13;89.45;96151.50;5053435;28;20180;-75
2021/01/18 01:08:38;;;;;;;6.70;6.00;;;;;;;-1.04;89.38;96158.78;5052836;28;20195;-74
2021/01/18 01:11:04;;;;;;;11.40;6.57;;;;;;;-1.04;89.14;96157.97;5053329;28;20267;-74
2021/01/18 01:13:29;;;;;;;9.67;6.53;;;;;;;-1.06;89.26;96168.22;5071149;28;20207;-74
2021/01/18 01:15:54;;;;;;;11.20;7.23;;;;;;;-1.05;89.29;96164.78;5053274;28;20260;-74
2021/01/18 01:18:19;;;;;;;8.30;6.57;;;;;;;-1.06;89.09;96160.56;5053140;28;20196;-75
2021/01/18 01:20:45;;;;;;;11.27;7.67;;;;;;;-1.04;89.30;96165.59;5055887;28;20195;-74
2021/01/18 01:23:10;;;;;;;10.87;7.23;;;;;;;-1.04;89.27;96163.88;5074762;28;20176;-75
2021/01/18 01:25:35;;;;;;;13.53;7.50;;;;;;;-1.05;88.94;96162.22;5057121;28;20636;-75
2021/01/18 01:28:01;;;;;;;14.20;7.70;;;;;;;-1.06;89.28;96163.13;5056861;28;20211;-74
2021/01/18 01:30:26;;;;;;;12.43;8.63;;;;;;;-1.03;89.34;96173.19;5040048;28;20296;-75
2021/01/18 01:32:53;;;;;;;11.70;8.17;;;;;;;-1.06;89.21;96169.91;5056810;28;20236;-74
2021/01/18 01:35:21;;;;;;;15.67;8.17;;;;;;;-1.07;89.51;96175.91;5048657;28;20184;-75
2021/01/18 01:37:46;;;;;;;15.17;8.60;;;;;;;-1.02;89.38;96176.56;5056709;28;20273;-75
2021/01/18 01:40:13;;;;;;;14.53;9.67;;;;;;;-1.10;89.30;96179.41;5056611;28;20181;-74
2021/01/18 01:42:39;;;;;;;14.97;10.13;;;;;;;-1.02;89.24;96182.47;5056535;28;20175;-75
2021/01/18 01:45:06;;;;;;;24.03;11.37;;;;;;;-1.08;89.26;96182.72;5056613;28;20188;-74
2021/01/18 01:47:35;;;;;;;18.57;11.37;;;;;;;-1.08;89.41;96177.63;5056516;28;20184;-74
2021/01/18 01:50:04;;;;;;;19.20;11.83;;;;;;;-1.12;89.54;96181.19;5056360;28;20254;-74
2021/01/18 01:52:29;;;;;;;28.57;13.93;;;;;;;-1.16;89.79;96180.47;5074401;28;20266;-74
2021/01/18 01:55:04;;;;;;;27.57;13.80;;;;;;;-1.19;90.17;96185.72;5056204;28;20228;-75
2021/01/18 01:57:32;;;;;;;25.37;14.07;;;;;;;-1.17;89.88;96185.63;5056216;28;20191;-74
2021/01/18 01:59:58;;;;;;;26.07;15.13;;;;;;;-1.16;90.06;96180.47;5056019;28;20177;-74
2021/01/18 02:02:24;;;;;;;28.63;14.50;;;;;;;-1.17;90.14;96183.09;5074141;28;20237;-75
2021/01/18 02:04:49;;;;;;;23.90;14.60;;;;;;;-1.19;90.00;96187.44;5056224;28;20191;-75
2021/01/18 02:07:25;;;;;;;27.80;16.40;;;;;;;-1.21;90.23;96179.84;5056288;28;20184;-74
2021/01/18 02:09:51;;;;;;;28.13;14.10;;;;;;;-1.21;90.38;96184.94;5039193;28;20202;-74
2021/01/18 02:12:17;;;;;;;32.07;16.10;;;;;;;-1.23;90.43;96183.34;5073951;28;20185;-74
2021/01/18 02:15:10;;;;;;;27.40;15.93;;;;;;;-1.17;90.29;96180.53;5055914;28;20709;-74
2021/01/18 02:17:58;;;;;;;28.70;14.67;;;;;;;-1.24;90.40;96190.13;5073909;28;20179;-74
2021/01/18 02:20:38;;;;;;;28.90;15.47;;;;;;;-1.22;90.28;96183.28;5055884;28;20177;-75
2021/01/18 02:23:35;;;;;;;25.50;14.03;;;;;;;-1.24;90.56;96190.13;5089042;28;20229;-74
2021/01/18 02:26:05;;;;;;;24.77;12.57;;;;;;;-1.25;90.41;96195.31;5074022;28;20617;-75
2021/01/18 02:28:52;;;;;;;23.40;13.17;;;;;;;-1.16;90.23;96195.78;5039260;28;20295;-75
2021/01/18 02:32:00;;;;;;;24.43;13.00;;;;;;;-1.18;90.07;96192.47;5054726;28;20183;-74
2021/01/18 02:34:44;;;;;;;20.50;12.90;;;;;;;-1.20;90.19;96190.88;5055578;28;20207;-74
2021/01/18 02:37:34;;;;;;;21.77;13.47;;;;;;;-1.19;89.79;96193.34;5073686;28;20345;-74
2021/01/18 02:40:08;;;;;;;23.60;13.13;;;;;;;-1.23;90.23;96193.56;5055526;28;20188;-74
2021/01/18 02:42:55;;;;;;;19.73;12.33;;;;;;;-1.25;89.95;96197.84;5055545;28;20321;-74
2021/01/18 02:45:22;;;;;;;21.73;12.77;;;;;;;-1.18;89.83;96191.63;5055516;28;20240;-75
2021/01/18 02:47:48;;;;;;;19.57;12.30;;;;;;;-1.26;89.65;96191.94;5038882;28;20676;-75
2021/01/18 02:50:14;;;;;;;19.50;11.73;;;;;;;-1.23;90.02;96191.00;5055262;28;20180;-74
2021/01/18 02:52:44;;;;;;;21.50;12.23;;;;;;;-1.26;90.01;96186.84;5071954;28;20291;-74
2021/01/18 02:55:10;;;;;;;20.97;11.17;;;;;;;-1.22;90.02;96182.47;5055337;28;20192;-74
2021/01/18 02:57:40;;;;;;;13.73;8.93;;;;;;;-1.19;89.45;96187.44;5038488;28;20549;-74
2021/01/18 03:00:09;;;;;;;14.90;9.40;;;;;;;-1.17;89.40;96181.38;5054987;28;20195;-74
2021/01/18 03:03:09;;;;;;;20.50;10.67;;;;;;;-1.21;89.65;96192.59;5055117;28;20179;-75
2021/01/18 03:05:43;;;;;;;14.93;9.63;;;;;;;-1.23;89.70;96188.44;4991402;28;20205;-74
2021/01/18 03:08:28;;;;;;;16.53;8.87;;;;;;;-1.24;89.88;96186.75;4991351;28;20212;-74
2021/01/18 03:11:02;;;;;;;16.63;10.60;;;;;;;-1.17;89.39;96193.28;4991163;28;20975;-75
2021/01/18 03:13:38;;;;;;;16.80;10.33;;;;;;;-1.23;89.23;96196.94;4975099;28;20634;-75
2021/01/18 03:16:25;;;;;;;15.47;9.80;;;;;;;-1.21;89.17;96201.97;4991331;28;20204;-74
2021/01/18 03:18:52;;;;;;;20.53;10.43;;;;;;;-1.21;89.04;96191.75;4990794;28;20217;-74
2021/01/18 03:21:18;;;;;;;18.80;11.23;;;;;;;-1.21;88.90;96199.41;4974923;28;20282;-74
2021/01/18 03:23:44;;;;;;;30.30;12.20;;;;;;;-1.16;88.97;96202.59;4974476;28;20263;-74
2021/01/18 03:26:10;;;;;;;17.17;9.80;;;;;;;-1.20;88.92;96190.88;4973898;28;20187;-75
2021/01/18 03:28:35;;;;;;;30.70;14.90;;;;;;;-1.23;88.97;96194.38;4974618;28;20226;-74
2021/01/18 03:31:01;;;;;;;17.83;10.93;;;;;;;-1.21;88.89;96201.97;4958680;28;20615;-74
2021/01/18 03:33:26;;;;;;;16.43;9.70;;;;;;;-1.23;88.69;96201.19;4990916;28;20201;-75
2021/01/18 03:35:52;;;;;;;24.27;13.10;;;;;;;-1.23;88.75;96202.03;4974609;28;20710;-74
2021/01/18 03:38:18;;;;;;;17.90;11.37;;;;;;;-1.23;88.52;96191.00;4966499;28;20216;-74
2021/01/18 03:40:43;;;;;;;15.37;9.63;;;;;;;-1.21;88.97;96207.06;5000185;28;20196;-74
2021/01/18 03:43:09;;;;;;;13.80;9.13;;;;;;;-1.19;88.67;96203.53;5054092;28;20176;-75
2021/01/18 03:45:36;;;;;;;12.07;7.60;;;;;;;-1.12;88.30;96209.25;5054468;28;20192;-74
2021/01/18 03:48:03;;;;;;;15.30;8.73;;;;;;;-1.20;88.38;96203.59;5054271;28;20297;-74
2021/01/18 03:50:28;;;;;;;13.17;8.53;;;;;;;-1.17;88.30;96193.28;5071917;28;20191;-74
2021/01/18 03:52:53;;;;;;;14.70;8.53;;;;;;;-1.22;88.28;96195.19;5053970;28;20204;-75
2021/01/18 03:55:19;;;;;;;12.63;8.20;;;;;;;-1.23;88.21;96194.38;5037814;28;20184;-76
2021/01/18 03:57:50;;;;;;;13.53;8.57;;;;;;;-1.19;88.33;96195.06;5071915;28;20663;-75
2021/01/18 04:00:17;;;;;;;13.30;8.40;;;;;;;-1.19;88.10;96195.91;5054022;28;20261;-74
2021/01/18 04:02:45;;;;;;;12.97;7.87;;;;;;;-1.16;87.96;96192.38;5053921;28;20266;-74
2021/01/18 04:05:10;;;;;;;11.87;7.83;;;;;;;-1.13;87.94;96194.84;5054331;28;20204;-74
2021/01/18 04:07:36;;;;;;;17.97;8.67;;;;;;;-1.21;87.58;96196.84;5053910;28;20222;-75
2021/01/18 04:10:01;;;;;;;17.40;7.97;;;;;;;-1.17;87.46;96191.56;5087095;28;20195;-76
2021/01/18 04:12:26;;;;;;;16.53;8.47;;;;;;;-1.14;87.63;96195.72;5071646;28;20608;-74
2021/01/18 04:14:52;;;;;;;14.60;8.00;;;;;;;-1.16;87.59;96194.94;5053954;28;20644;-74
2021/01/18 04:17:17;;;;;;;10.90;8.10;;;;;;;-1.19;87.60;96198.44;5053900;28;20230;-74
2021/01/18 04:19:43;;;;;;;15.03;8.00;;;;;;;-1.19;87.60;96193.34;5053488;28;20249;-74
2021/01/18 04:22:08;;;;;;;11.40;7.90;;;;;;;-1.24;87.76;96191.88;5053348;28;20180;-74
2021/01/18 04:24:34;;;;;;;13.30;7.53;;;;;;;-1.24;87.44;96196.97;5053897;28;20183;-75
2021/01/18 04:27:00;;;;;;;14.57;8.43;;;;;;;-1.24;87.35;96202.06;5071615;28;20246;-75
2021/01/18 04:29:25;;;;;;;12.07;6.90;;;;;;;-1.26;87.27;96207.22;5053295;28;20242;-74
2021/01/18 04:31:51;;;;;;;13.63;6.73;;;;;;;-1.25;87.32;96203.78;5053661;28;20194;-75
2021/01/18 04:34:16;;;;;;;11.93;7.07;;;;;;;-1.29;86.73;96203.97;5053710;28;20255;-75
2021/01/18 04:36:42;;;;;;;16.27;6.60;;;;;;;-1.31;87.14;96204.03;5070340;28;20193;-75
2021/01/18 04:39:08;;;;;;;12.27;7.10;;;;;;;-1.29;87.10;96206.53;5053247;28;20227;-74
2021/01/18 04:41:40;;;;;;;11.37;6.90;;;;;;;-1.31;87.29;96203.22;5036935;28;20211;-74
2021/01/18 04:44:11;;;;;;;10.90;6.20;;;;;;;-1.23;87.05;96207.13;5053556;28;20203;-75
2021/01/18 04:46:39;;;;;;;14.27;6.30;;;;;;;-1.26;86.54;96209.75;5071417;28;20238;-77
2021/01/18 04:49:05;;;;;;;16.60;7.03;;;;;;;-1.22;86.76;96207.94;5053311;28;20651;-75
2021/01/18 04:51:53;;;;;;;11.03;7.03;;;;;;;-1.24;86.61;96204.59;5036785;28;20211;-76
2021/01/18 04:54:20;;;;;;;12.73;6.40;;;;;;;-1.27;86.67;96209.84;5072101;28;20204;-76
2021/01/18 04:57:11;;;;;;;10.80;6.43;;;;;;;-1.32;87.05;96206.66;5057571;28;20187;-75
2021/01/18 04:59:39;;;;;;;10.70;7.13;;;;;;;-1.32;86.92;96216.84;5057216;28;20252;-75
2021/01/18 05:02:13;;;;;;;13.07;7.23;;;;;;;-1.35;86.80;96212.66;5057459;28;20238;-76
2021/01/18 05:04:40;;;;;;;9.83;6.53;;;;;;;-1.33;87.21;96212.59;5074148;28;20187;-74
2021/01/18 05:07:33;;;;;;;12.83;7.23;;;;;;;-1.34;87.25;96209.22;5057491;28;20198;-76
2021/01/18 05:10:09;;;;;;;10.40;6.70;;;;;;;-1.39;87.12;96211.16;5057030;28;20651;-75
2021/01/18 05:12:42;;;;;;;9.47;6.37;;;;;;;-1.38;86.68;96217.06;5057425;28;20203;-75
2021/01/18 05:15:12;;;;;;;14.87;7.23;;;;;;;-1.36;86.60;96205.09;5057275;28;20184;-75
2021/01/18 05:17:48;;;;;;;14.03;6.47;;;;;;;-1.40;86.85;96201.84;5057215;28;20250;-76
2021/01/18 05:20:18;;;;;;;9.57;5.77;;;;;;;-1.33;86.32;96222.81;5057002;28;20211;-75
2021/01/18 05:22:49;;;;;;;11.47;6.27;;;;;;;-1.41;86.51;96210.38;5056699;28;20174;-75
2021/01/18 05:25:14;;;;;;;13.97;6.47;;;;;;;-1.48;87.08;96212.34;5057543;28;20182;-75
2021/01/18 05:28:05;;;;;;;11.93;5.93;;;;;;;-1.46;86.94;96215.63;5056951;28;20198;-75
2021/01/18 05:30:43;;;;;;;11.60;7.47;;;;;;;-1.51;86.87;96206.50;5074679;28;20639;-75
2021/01/18 05:33:13;;;;;;;12.13;6.73;;;;;;;-1.49;86.64;96205.56;5056848;28;20192;-75
2021/01/18 05:35:41;;;;;;;10.00;6.20;;;;;;;-1.49;86.79;96215.78;5040226;28;20183;-75
2021/01/18 05:38:11;;;;;;;8.40;5.90;;;;;;;-1.58;86.63;96202.56;5074481;28;20225;-76
2021/01/18 05:40:39;;;;;;;12.80;7.33;;;;;;;-1.61;86.90;96203.47;5057242;28;20229;-75
2021/01/18 05:43:05;;;;;;;10.63;6.53;;;;;;;-1.62;86.83;96199.28;5056745;28;20208;-75
2021/01/18 05:45:32;;;;;;;9.13;5.50;;;;;;;-1.63;87.17;96209.53;5056812;28;20211;-75
2021/01/18 05:47:58;;;;;;;11.37;6.83;;;;;;;-1.70;87.26;96208.91;5056647;28;20294;-74
2021/01/18 05:50:24;;;;;;;11.10;6.20;;;;;;;-1.72;87.42;96205.59;5056503;28;20186;-74
2021/01/18 05:52:50;;;;;;;13.87;6.30;;;;;;;-1.73;87.32;96216.69;5056506;28;20189;-75
2021/01/18 05:55:16;;;;;;;11.83;6.70;;;;;;;-1.79;87.30;96214.34;5039940;28;20272;-75
2021/01/18 05:57:50;;;;;;;13.13;6.50;;;;;;;-1.78;87.48;96216.00;5074385;28;20196;-75
2021/01/18 06:00:29;;;;;;;11.97;5.80;;;;;;;-1.77;87.26;96230.41;5056182;28;20278;-75
2021/01/18 06:02:55;;;;;;;10.13;6.00;;;;;;;-1.74;87.56;96235.41;5056545;28;20181;-76
2021/01/18 06:05:25;;;;;;;15.17;6.77;;;;;;;-1.70;87.41;96239.47;5056414;28;20179;-76
2021/01/18 06:07:51;;;;;;;11.73;6.17;;;;;;;-1.68;87.61;96250.44;5056280;28;20890;-75
2021/01/18 06:10:17;;;;;;;13.47;7.33;;;;;;;-1.60;87.62;96237.41;5055917;28;20652;-77
2021/01/18 06:12:43;;;;;;;10.80;7.07;;;;;;;-1.54;87.71;96253.31;5055812;28;20215;-77
2021/01/18 06:15:15;;;;;;;11.83;7.73;;;;;;;-1.50;87.44;96242.13;5073770;28;20269;-75
2021/01/18 06:17:45;;;;;;;9.30;6.97;;;;;;;-1.54;87.37;96255.03;5035641;28;20214;-74
2021/01/18 06:20:22;;;;;;;15.13;7.87;;;;;;;-1.56;87.34;96254.25;5038433;28;20277;-73
2021/01/18 06:22:57;;;;;;;14.53;7.63;;;;;;;-1.54;87.46;96255.84;5055083;28;20269;-74
2021/01/18 06:25:33;;;;;;;11.37;7.13;;;;;;;-1.59;87.60;96254.34;5055395;28;20271;-74
2021/01/18 06:27:58;;;;;;;12.10;6.77;;;;;;;-1.53;87.70;96265.16;5054112;28;20196;-74
2021/01/18 06:30:28;;;;;;;11.10;7.77;;;;;;;-1.52;87.74;96274.44;5074440;28;20218;-75
2021/01/18 06:33:01;;;;;;;12.53;8.27;;;;;;;-1.46;88.19;96269.13;5056013;28;20211;-76
2021/01/18 06:35:31;;;;;;;15.63;7.73;;;;;;;-1.44;87.58;96284.34;5049854;28;20197;-74
2021/01/18 06:37:59;;;;;;;12.20;8.10;;;;;;;-1.44;88.26;96280.09;5047626;28;20207;-75
2021/01/18 06:40:34;;;;;;;15.30;8.30;;;;;;;-1.40;88.02;96277.44;5055237;28;20193;-74
2021/01/18 06:43:00;;;;;;;14.37;7.93;;;;;;;-1.42;88.26;96280.03;5054842;28;20576;-74
2021/01/18 06:45:36;;;;;;;14.00;8.73;;;;;;;-1.41;88.64;96274.06;5055129;28;20237;-73
2021/01/18 06:48:04;;;;;;;17.27;9.47;;;;;;;-1.36;88.30;96276.44;5054882;28;20288;-75
2021/01/18 06:50:32;;;;;;;19.97;11.70;;;;;;;-1.37;88.62;96282.41;5054734;28;20725;-73
2021/01/18 06:53:14;;;;;;;20.87;10.37;;;;;;;-1.37;88.69;96275.59;5054998;28;20260;-73
2021/01/18 06:55:52;;;;;;;27.20;13.53;;;;;;;-1.33;88.73;96282.22;5073027;28;20184;-74
2021/01/18 06:58:31;;;;;;;21.00;11.00;;;;;;;-1.33;88.50;96277.13;5038384;28;20238;-74
2021/01/18 07:00:58;;;;;;;23.30;11.93;;;;;;;-1.33;88.78;96278.84;5055168;28;20201;-75
2021/01/18 07:03:38;;;;;;;26.00;15.90;;;;;;;-1.34;88.43;96284.84;5054883;28;20199;-75
2021/01/18 07:06:23;;;;;;;22.30;12.07;;;;;;;-1.36;88.49;96284.91;5038370;28;20234;-74
2021/01/18 07:08:51;;;;;;;15.70;9.93;;;;;;;-1.31;88.69;96290.69;5071965;28;20234;-76
2021/01/18 07:11:17;;;;;;;18.40;9.80;;;;;;;-1.32;88.80;96298.38;5054321;28;20584;-74
2021/01/18 07:13:46;;;;;;;13.70;8.97;;;;;;;-1.25;88.45;96298.06;5054576;28;20229;-76
2021/01/18 07:16:12;;;;;;;17.27;8.63;;;;;;;-1.23;88.28;96303.13;5054149;28;20191;-74
2021/01/18 07:18:45;;;;;;;16.30;9.37;;;;;;;-1.25;88.24;96297.25;5053692;28;20206;-74
2021/01/18 07:21:17;;;;;;;15.37;10.37;;;;;;;-1.19;88.36;96307.22;5071882;28;20655;-75
2021/01/18 07:23:48;;;;;;;17.67;9.23;;;;;;;-1.21;88.42;96311.53;5054177;28;20180;-75
2021/01/18 07:26:31;;;;;;;19.17;9.93;;;;;;;-1.25;88.55;96313.34;5054092;28;20663;-75
2021/01/18 07:29:06;;;;;;;17.53;10.77;;;;;;;-1.19;88.63;96317.41;5053832;28;20208;-76
2021/01/18 07:31:34;;;;;;;17.37;10.70;;;;;;;-1.15;88.25;96324.03;5037503;28;20333;-75
2021/01/18 07:34:00;;;;;;;18.40;9.60;;;;;;;-1.15;88.44;96321.47;5054204;28;20578;-75
2021/01/18 07:36:30;;;;;;;18.93;9.20;;;;;;;-1.18;88.13;96324.16;5037830;28;20179;-75
2021/01/18 07:38:57;;;;;;;17.87;9.13;;;;;;;-1.16;88.26;96330.03;5055557;28;20690;-76
2021/01/18 07:41:32;;;;;;;16.70;8.90;;;;;;;-1.03;88.05;96331.25;5053988;28;20192;-74
2021/01/18 07:43:58;;;;;;;13.60;8.77;;;;;;;-1.02;87.90;96337.16;5054039;28;20179;-75
2021/01/18 07:46:28;;;;;;;15.33;8.10;;;;;;;-1.07;87.90;96344.13;5054023;28;20663;-75
2021/01/18 07:49:13;;;;;;;13.93;8.27;;;;;;;-1.09;87.95;96344.19;5053389;28;20677;-75
2021/01/18 07:51:38;;;;;;;15.90;8.00;;;;;;;-1.08;88.11;96343.31;5040027;28;20192;-74
2021/01/18 07:54:04;;;;;;;15.13;7.50;;;;;;;-1.05;88.19;96348.31;5054035;28;20213;-74
2021/01/18 07:56:30;;;;;;;10.63;7.47;;;;;;;-1.05;87.85;96348.31;5053626;28;20189;-74
2021/01/18 07:59:02;;;;;;;12.27;7.57;;;;;;;-1.00;87.89;96351.50;5053386;28;20199;-74
2021/01/18 08:01:29;;;;;;;14.33;7.70;;;;;;;-1.00;87.73;96348.97;5071872;28;20179;-75
2021/01/18 08:04:17;;;;;;;11.33;7.90;;;;;;;-0.99;87.91;96353.16;5053365;28;20184;-74
2021/01/18 08:07:01;;;;;;;15.37;9.60;;;;;;;-0.98;87.94;96352.28;5053224;28;20190;-74
2021/01/18 08:09:27;;;;;;;17.47;8.80;;;;;;;-0.96;88.20;96355.63;5071120;28;20212;-74
2021/01/18 08:11:52;;;;;;;16.60;8.70;;;;;;;-0.89;88.16;96356.19;5071393;28;20665;-76
2021/01/18 08:14:17;;;;;;;13.47;9.03;;;;;;;-0.87;88.02;96360.38;5053873;28;20235;-74
2021/01/18 08:16:43;;;;;;;13.63;9.40;;;;;;;-0.98;88.40;96356.53;5071033;28;20546;-75
2021/01/18 08:19:30;;;;;;;20.53;9.93;;;;;;;-0.98;88.36;96361.63;5053570;28;20227;-76
2021/01/18 08:22:05;;;;;;;15.70;7.90;;;;;;;-0.95;88.39;96367.47;5053563;28;20527;-75
2021/01/18 08:24:30;;;;;;;15.20;8.23;;;;;;;-0.96;88.39;96359.88;5071728;28;20198;-75
2021/01/18 08:26:59;;;;;;;12.50;8.47;;;;;;;-0.93;88.26;96357.22;5070780;28;20184;-75
2021/01/18 08:29:35;;;;;;;14.77;8.40;;;;;;;-0.91;88.25;96366.44;5032473;28;20700;-74
2021/01/18 08:32:22;;;;;;;13.17;8.30;;;;;;;-0.94;88.28;96361.47;5049166;28;20187;-74
2021/01/18 08:34:50;;;;;;;12.70;6.97;;;;;;;-0.93;88.17;96359.75;5071487;28;20212;-74
2021/01/18 08:37:16;;;;;;;10.37;6.60;;;;;;;-0.95;88.21;96364.91;5054566;28;20573;-74
2021/01/18 08:39:51;;;;;;;10.27;6.60;;;;;;;-0.91;88.33;96361.34;5070401;28;20218;-75
2021/01/18 08:42:27;;;;;;;8.57;6.00;;;;;;;-0.87;87.93;96359.53;5033471;28;20639;-75
2021/01/18 08:45:06;;;;;;;12.77;7.03;;;;;;;-0.77;87.74;96358.28;5071375;28;20260;-75
2021/01/18 08:47:42;;;;;;;11.30;7.27;;;;;;;-0.88;87.71;96366.34;5029846;28;20727;-74
2021/01/18 08:50:29;;;;;;;14.93;8.10;;;;;;;-0.88;87.90;96368.91;5052787;28;20192;-75
2021/01/18 08:52:57;;;;;;;10.70;7.30;;;;;;;-0.84;87.83;96369.59;5038651;28;20210;-74
2021/01/18 08:55:28;;;;;;;13.13;7.80;;;;;;;-0.84;87.87;96371.31;5053019;28;20219;-73
2021/01/18 08:58:06;;;;;;;9.40;6.70;;;;;;;-0.75;87.61;96370.97;5070680;28;20199;-74
2021/01/18 09:00:42;;;;;;;9.87;7.20;;;;;;;-0.78;87.25;96368.56;5052945;28;20184;-75
2021/01/18 09:03:09;;;;;;;10.23;6.93;;;;;;;-0.79;87.48;96375.38;5052947;28;20184;-74
2021/01/18 09:05:35;;;;;;;10.83;6.63;;;;;;;-0.66;87.27;96375.72;5052833;28;20191;-74
2021/01/18 09:08:02;;;;;;;17.33;7.63;;;;;;;-0.60;87.05;96375.50;5053187;28;20203;-74
2021/01/18 09:10:27;;;;;;;15.93;8.20;;;;;;;-0.56;86.80;96371.91;5052962;28;20216;-75
2021/01/18 09:12:53;;;;;;;11.90;7.33;;;;;;;-0.53;86.48;96370.97;5052684;28;20687;-77
2021/01/18 09:15:19;;;;;;;15.37;8.37;;;;;;;-0.53;86.42;96374.38;5052735;28;20191;-75
2021/01/18 09:17:48;;;;;;;11.37;7.00;;;;;;;-0.58;86.30;96373.72;5052645;28;20672;-74
2021/01/18 09:20:14;;;;;;;12.60;7.40;;;;;;;-0.52;86.17;96365.00;5052704;28;20188;-75
2021/01/18 09:22:42;;;;;;;11.70;6.10;;;;;;;-0.39;85.82;96366.97;5052569;28;20639;-74
2021/01/18 09:25:09;;;;;;;10.03;6.63;;;;;;;-0.46;85.20;96363.00;5053146;28;20260;-74
2021/01/18 09:27:36;;;;;;;13.23;6.37;;;;;;;-0.34;85.59;96371.91;5052527;28;20203;-75
2021/01/18 09:30:04;;;;;;;7.43;5.37;;;;;;;-0.38;84.88;96373.75;5052770;28;20234;-75
2021/01/18 09:32:29;;;;;;;9.23;5.53;;;;;;;-0.41;84.95;96371.31;5070948;28;20191;-74
2021/01/18 09:35:14;;;;;;;12.77;6.00;;;;;;;-0.29;84.48;96370.81;5052771;28;20188;-74
2021/01/18 09:37:43;;;;;;;9.93;6.50;;;;;;;-0.16;84.13;96371.16;5052646;28;20187;-75
2021/01/18 09:40:09;;;;;;;7.10;5.77;;;;;;;-0.20;84.38;96373.91;5045371;28;20271;-74
2021/01/18 09:42:38;;;;;;;9.83;5.50;;;;;;;-0.07;84.02;96369.97;5062237;28;20485;-76
2021/01/18 09:45:05;;;;;;;8.30;5.27;;;;;;;0.07;83.81;96371.94;5060661;28;20188;-75
2021/01/18 09:47:31;;;;;;;12.07;5.50;;;;;;;0.15;82.75;96373.28;5039891;28;20185;-75
2021/01/18 09:50:05;;;;;;;8.30;4.97;;;;;;;0.30;82.55;96368.41;5039163;28;20637;-74
2021/01/18 09:52:31;;;;;;;9.57;4.93;;;;;;;0.46;81.41;96374.53;5055397;28;20539;-73
2021/01/18 09:54:58;;;;;;;7.27;4.73;;;;;;;0.46;81.19;96364.31;5056163;28;20192;-73
2021/01/18 09:57:24;;;;;;;9.57;4.70;;;;;;;0.53;80.61;96363.13;5073910;28;20184;-73
2021/01/18 09:59:50;;;;;;;5.60;5.07;;;;;;;0.64;80.03;96358.41;5055845;28;20184;-75
2021/01/18 10:02:16;;;;;;;9.97;4.97;;;;;;;0.84;79.33;96358.34;5056030;28;20220;-75
2021/01/18 10:04:41;;;;;;;10.20;5.17;;;;;;;1.09;79.74;96370.03;5054432;28;20554;-75
2021/01/18 10:07:09;;;;;;;7.57;5.50;;;;;;;1.18;78.37;96358.53;5054863;28;20173;-75
2021/01/18 10:09:35;;;;;;;8.07;3.60;;;;;;;1.32;77.92;96362.09;5072789;28;20197;-75
2021/01/18 10:12:03;;;;;;;9.03;4.30;;;;;;;1.08;77.70;96355.56;5055774;28;20637;-74
2021/01/18 10:14:28;;;;;;;5.93;3.97;;;;;;;1.12;77.65;96350.22;5044505;28;20215;-74
2021/01/18 10:17:01;;;;;;;5.60;3.70;;;;;;;1.08;77.46;96342.78;5055473;28;20181;-74
2021/01/18 10:19:33;;;;;;;6.80;3.40;;;;;;;0.97;78.15;96343.28;5038096;28;20204;-73
2021/01/18 10:22:00;;;;;;;5.57;3.27;;;;;;;1.18;78.07;96345.75;5055772;28;20536;-74
2021/01/18 10:24:29;;;;;;;6.13;3.27;;;;;;;1.09;77.99;96344.44;5038634;28;20189;-75
2021/01/18 10:27:04;;;;;;;8.40;3.47;;;;;;;1.03;77.63;96340.44;5055755;28;20205;-75
2021/01/18 10:29:29;;;;;;;6.63;2.90;;;;;;;0.86;77.91;96330.13;5037805;28;20668;-74
2021/01/18 10:31:55;;;;;;;4.83;3.00;;;;;;;0.79;78.48;96337.25;5038676;28;20188;-74
2021/01/18 10:34:21;;;;;;;5.23;3.40;;;;;;;0.95;79.12;96334.00;5055138;28;20302;-73
2021/01/18 10:36:47;;;;;;;7.67;3.30;;;;;;;1.12;77.94;96334.06;5073180;28;20177;-73
2021/01/18 10:39:36;;;;;;;6.03;2.73;;;;;;;1.11;77.40;96338.34;5038289;28;20793;-74
2021/01/18 10:42:08;;;;;;;8.17;2.80;;;;;;;1.11;77.52;96329.84;5055141;28;20199;-75
2021/01/18 10:44:34;;;;;;;4.93;2.87;;;;;;;1.30;77.07;96337.47;5054055;28;20679;-75
2021/01/18 10:46:59;;;;;;;2.30;2.10;;;;;;;1.09;76.64;96336.78;5072614;28;20188;-74
2021/01/18 10:49:27;;;;;;;9.77;2.70;;;;;;;1.26;76.53;96336.81;5054890;28;20207;-73
2021/01/18 10:52:04;;;;;;;5.07;2.50;;;;;;;1.41;76.22;96335.25;5054376;28;20256;-73
2021/01/18 10:54:29;;;;;;;4.53;2.73;;;;;;;1.43;76.10;96338.59;5065475;28;20208;-73
2021/01/18 10:56:59;;;;;;;8.17;2.60;;;;;;;1.57;74.91;96345.59;5047503;28;20181;-73
2021/01/18 10:59:24;;;;;;;7.60;2.50;;;;;;;1.79;74.43;96341.09;5054662;28;20197;-73
2021/01/18 11:02:04;;;;;;;7.97;2.83;;;;;;;1.94;74.41;96345.47;5072699;28;20295;-75
2021/01/18 11:04:33;;;;;;;9.73;3.10;;;;;;;1.76;74.32;96356.59;5054881;28;20165;-75
2021/01/18 11:06:59;;;;;;;7.67;2.97;;;;;;;1.67;74.67;96346.78;5054516;28;20185;-74
2021/01/18 11:09:33;;;;;;;3.07;2.60;;;;;;;1.79;74.21;96346.22;5054157;28;20585;-74
2021/01/18 11:12:00;;;;;;;4.63;2.60;;;;;;;1.77;74.47;96342.06;5054811;28;20582;-73
2021/01/18 11:14:26;;;;;;;5.30;2.50;;;;;;;1.52;74.56;96345.00;5054519;28;20209;-74
2021/01/18 11:17:00;;;;;;;4.77;2.50;;;;;;;1.53;75.00;96347.47;5070276;28;20169;-74
2021/01/18 11:19:26;;;;;;;3.20;1.80;;;;;;;1.63;75.31;96343.56;5037665;28;20216;-73
2021/01/18 11:21:51;;;;;;;9.03;2.83;;;;;;;1.60;74.85;96340.34;5034677;28;20188;-74
2021/01/18 11:24:17;;;;;;;4.23;2.33;;;;;;;1.70;75.04;96351.78;5064431;28;20173;-73
2021/01/18 11:26:42;;;;;;;8.80;2.80;;;;;;;1.41;75.27;96345.47;5057435;28;20203;-74
2021/01/18 11:29:07;;;;;;;7.43;4.00;;;;;;;1.62;75.26;96339.34;5071062;28;20626;-74
2021/01/18 11:31:33;;;;;;;8.70;4.03;;;;;;;1.49;75.40;96334.88;5066640;28;20186;-74
2021/01/18 11:33:58;;;;;;;8.03;3.80;;;;;;;1.52;74.89;96332.19;5054411;28;20727;-74
2021/01/18 11:36:25;;;;;;;6.40;3.50;;;;;;;1.65;74.52;96333.25;5066623;28;20178;-74
2021/01/18 11:38:51;;;;;;;7.17;2.10;;;;;;;1.55;74.62;96324.34;5049822;28;20200;-74